• Join FlightAware (Why Join?)
  • Login
  • US Flag 
02:10AM EDT


 

Airport Tracker/Info


-or-


 

Live Flight TrackerFlight Track Log ✈ AAL1459 ✈ 11-Jul-2013 ✈ KORD - KRNO

Flight Track Log - Related Links

Times and Time Zones

All times are in EDT time to prevent confusion due to time zone crossing. See the AAL1459 flight status page for this flight to view local times or setup timezone preferences in your user account.

Time Position Orientation Groundspeed Altitude Reporting Facility
EDT Latitude Longitude Course Direction KTS MPH feet Rate Location/Type
07:32PM 41.9900 -87.9330 319° Northwest 180 207 800  Level FlightAware
07:32PM 42.0090 -87.9500 326° Northwest 177 204 2,200 2,400 Climbing FlightAware
07:33PM 42.0180 -87.9560 334° Northwest 197 227 2,400 1,440 Climbing FlightAware
07:33PM 42.0440 -87.9720 335° Northwest 234 269 3,200 1,980 Climbing FlightAware
07:34PM 42.0740 -87.9900 336° Northwest 263 303 4,300 2,340 Climbing FlightAware
07:34PM 42.1000 -88.0050 337° Northwest 254 292 5,200 2,340 Climbing FlightAware
07:34PM 42.1150 -88.0250 315° West 266 306 5,900 2,760 Climbing FlightAware
07:35PM 42.1380 -88.0710 304° West 284 327 7,500 3,060 Climbing FlightAware
07:35PM 42.1420 -88.0910 285° West 291 335 8,100 3,120 Climbing FlightAware
07:35PM 42.1270 -88.1380 247° West 303 349 9,600 3,000 Climbing FlightAware
07:36PM 42.1150 -88.1520 221° Southwest 307 353 10,100 2,640 Climbing FlightAware
07:36PM 42.0680 -88.2020 218° Southwest 314 361 11,900 2,640 Climbing FlightAware
07:36PM 42.0600 -88.2220 242° Southwest 316 364 12,400 1,800 Climbing FlightAware
07:37PM 42.0310 -88.3000 243° Southwest 351 404 13,600 1,800 Climbing FlightAware
07:38PM 42.0060 -88.3690 244° Southwest 369 425 14,700 2,400 Climbing FlightAware
07:38PM 41.9740 -88.4610 245° Southwest 374 430 16,700 2,640 Climbing FlightAware
07:39PM 41.9500 -88.5460 249° West 375 432 18,400 2,400 Climbing FlightAware
07:40PM 41.9290 -88.6430 254° West 381 438 20,100 2,280 Climbing FlightAware
07:41PM 41.9080 -88.7350 253° West 389 448 21,600 2,160 Climbing FlightAware
07:41PM 41.8860 -88.8340 253° West 397 457 23,100 1,920 Climbing FlightAware
07:42PM 41.8630 -88.9400 254° West 401 461 24,400 1,260 Climbing FlightAware
07:43PM 41.8530 -89.0420 263° West 423 487 24,900 960 Climbing FlightAware
07:43PM 41.8400 -89.1640 262° West 442 509 25,800 1,320 Climbing FlightAware
07:44PM 41.8270 -89.2800 261° West 447 514 26,900 1,500 Climbing FlightAware
07:45PM 41.8150 -89.3880 262° West 451 519 27,900 1,500 Climbing FlightAware
07:45PM 41.8020 -89.5060 262° West 452 520 29,000 1,560 Climbing FlightAware
07:46PM 41.7900 -89.6150 262° West 450 518 30,100 1,500 Climbing FlightAware
07:47PM 41.7770 -89.7350 262° West 451 519 31,100 1,260 Climbing FlightAware
07:48PM 41.7640 -89.8470 261° West 454 522 31,900 1,080 Climbing FlightAware
07:48PM 41.7520 -89.9590 262° West 457 526 32,600 1,080 Climbing FlightAware
07:49PM 41.7380 -90.0800 261° West 459 528 33,400 1,320 Climbing FlightAware
07:50PM 41.7240 -90.1990 261° West 451 519 34,500 1,500 Climbing FlightAware
07:50PM 41.7130 -90.2930 261° West 444 511 35,400 1,080 Climbing FlightAware
07:51PM 41.6990 -90.4160 261° West 439 505 36,000 420 Climbing FlightAware
07:52PM 41.6870 -90.5180 261° West 440 506 36,000  Level FlightAware
07:52PM 41.6730 -90.6320 261° West 440 506 36,000  Level FlightAware
07:53PM 41.6590 -90.7490 261° West 440 506 36,000  Level FlightAware
07:54PM 41.6440 -90.8670 260° West 440 506 36,000  Level FlightAware
07:54PM 41.6330 -90.9630 261° West 440 506 36,000  Level FlightAware
07:55PM 41.6200 -91.0640 260° West 440 506 36,000  Level FlightAware
07:56PM 41.6060 -91.1800 261° West 440 506 36,000  Level FlightAware
07:56PM 41.5920 -91.2870 260° West 440 506 36,000 600 Level FlightAware
07:57PM 41.5880 -91.4060 267° West 413 475 36,900 1,020 Climbing FlightAware
07:58PM 41.5960 -91.5280 275° West 409 471 37,600 660 Climbing FlightAware
07:59PM 41.6030 -91.6310 275° West 410 472 37,900 300 Climbing FlightAware
07:59PM 41.6090 -91.7290 275° West 412 474 38,000 60 Climbing FlightAware
08:00PM 41.6160 -91.8440 275° West 412 474 38,000  Level FlightAware
08:01PM 41.6220 -91.9450 275° West 412 474 38,000  Level FlightAware
08:01PM 41.6290 -92.0510 275° West 411 473 38,000  Level FlightAware
08:02PM 41.6330 -92.1210 274° West 410 472 38,000  Level FlightAware
08:03PM 41.6390 -92.2300 274° West 409 471 38,000  Level FlightAware
08:03PM 41.6460 -92.3480 275° West 407 468 38,000  Level FlightAware
08:04PM 41.6510 -92.4320 275° West 407 468 38,000  Level FlightAware
08:05PM 41.6560 -92.5300 274° West 405 466 38,000  Level FlightAware
08:05PM 41.6630 -92.6470 275° West 404 465 38,000  Level FlightAware
08:06PM 41.6680 -92.7500 274° West 403 464 38,000  Level FlightAware
08:07PM 41.6740 -92.8620 274° West 405 466 38,000  Level FlightAware
08:08PM 41.6800 -92.9630 275° West 408 470 38,000  Level FlightAware
08:08PM 41.6851 -93.0714 274° West 409 471 38,000  Level FlightAware ADS-B
08:09PM 41.6889 -93.1482 274° West 410 472 38,000  Level FlightAware ADS-B
08:09PM 41.6927 -93.2237 274° West 410 472 38,000  Level FlightAware ADS-B
08:10PM 41.6965 -93.3018 274° West 412 474 38,000  Level FlightAware ADS-B
08:10PM 41.7003 -93.3794 274° West 413 475 38,000  Level FlightAware ADS-B
08:11PM 41.7039 -93.4556 274° West 413 475 38,000  Level FlightAware ADS-B
08:11PM 41.7075 -93.5326 274° West 413 475 38,000  Level FlightAware ADS-B
08:12PM 41.7114 -93.6154 274° West 413 475 38,000  Level FlightAware ADS-B
08:12PM 41.7149 -93.6924 274° West 413 475 38,000  Level FlightAware ADS-B
08:13PM 41.7183 -93.7712 273° West 413 475 38,000  Level FlightAware ADS-B
08:13PM 41.7218 -93.8481 274° West 413 475 38,000  Level FlightAware ADS-B
08:14PM 41.7255 -93.9334 273° West 412 474 38,000  Level FlightAware ADS-B
08:14PM 41.7288 -94.0112 273° West 413 475 38,000  Level FlightAware ADS-B
08:15PM 41.7322 -94.0913 273° West 414 476 38,000  Level FlightAware ADS-B
08:15PM 41.7355 -94.1685 273° West 414 476 38,000  Level FlightAware ADS-B
08:16PM 41.7386 -94.2453 273° West 415 478 38,000  Level FlightAware ADS-B
08:16PM 41.7416 -94.3225 273° West 415 478 38,000  Level FlightAware ADS-B
08:17PM 41.7447 -94.4003 273° West 416 479 38,000  Level FlightAware ADS-B
08:17PM 41.7478 -94.4775 273° West 417 480 38,000  Level FlightAware ADS-B
08:18PM 41.7507 -94.5556 273° West 418 481 38,000  Level FlightAware ADS-B
08:18PM 41.7537 -94.6363 273° West 418 481 38,000  Level FlightAware ADS-B
08:19PM 41.7565 -94.7149 273° West 419 482 38,000  Level FlightAware ADS-B
08:19PM 41.7594 -94.7927 273° West 421 484 38,000  Level FlightAware ADS-B
08:20PM 41.7622 -94.8718 273° West 422 486 38,000  Level FlightAware ADS-B
08:20PM 41.7649 -94.9502 273° West 422 486 38,000  Level FlightAware ADS-B
08:21PM 41.7675 -95.0299 273° West 422 486 38,000  Level FlightAware ADS-B
08:22PM 41.7703 -95.1092 273° West 422 486 38,000  Level FlightAware ADS-B
08:22PM 41.7728 -95.1874 272° West 422 486 38,000  Level FlightAware ADS-B
08:23PM 41.7753 -95.2668 272° West 422 486 38,000  Level FlightAware ADS-B
08:23PM 41.7778 -95.3448 272° West 421 484 38,000  Level FlightAware ADS-B
08:24PM 41.7802 -95.4248 272° West 420 483 38,000  Level FlightAware ADS-B
08:24PM 41.7825 -95.5031 272° West 418 481 38,000  Level FlightAware ADS-B
08:25PM 41.7848 -95.5805 272° West 416 479 38,000  Level FlightAware ADS-B
08:25PM 41.7870 -95.6579 272° West 414 476 38,000  Level FlightAware ADS-B
08:26PM 41.7891 -95.7346 272° West 412 474 38,000  Level FlightAware ADS-B
08:26PM 41.7912 -95.8122 272° West 412 474 38,000  Level FlightAware ADS-B
08:27PM 41.7932 -95.8888 272° West 412 474 38,000  Level FlightAware ADS-B
08:27PM 41.7952 -95.9665 272° West 414 476 38,000  Level FlightAware ADS-B
08:28PM 41.7972 -96.0439 272° West 415 478 38,000  Level FlightAware ADS-B
08:28PM 41.7991 -96.1215 272° West 415 478 38,000  Level FlightAware ADS-B
08:29PM 41.8009 -96.1985 272° West 415 478 38,000  Level FlightAware ADS-B
08:29PM 41.8027 -96.2781 272° West 416 479 38,000  Level FlightAware ADS-B
08:30PM 41.8044 -96.3572 272° West 418 481 38,000  Level FlightAware ADS-B
08:30PM 41.8062 -96.4388 272° West 418 481 38,000  Level FlightAware ADS-B
08:31PM 41.8079 -96.5167 272° West 419 482 38,000  Level FlightAware ADS-B
08:31PM 41.8095 -96.5964 272° West 420 483 38,000  Level FlightAware ADS-B
08:32PM 41.8110 -96.6741 272° West 421 484 38,000  Level FlightAware ADS-B
08:32PM 41.8125 -96.7524 271° West 422 486 38,000  Level FlightAware ADS-B
08:33PM 41.8140 -96.8316 271° West 422 486 38,000  Level FlightAware ADS-B
08:33PM 41.8154 -96.9114 271° West 422 486 38,000  Level FlightAware ADS-B
08:34PM 41.8167 -96.9896 271° West 422 486 38,000  Level FlightAware ADS-B
08:34PM 41.8180 -97.0693 271° West 423 487 38,000  Level FlightAware ADS-B
08:35PM 41.8192 -97.1474 271° West 423 487 38,000  Level FlightAware ADS-B
08:35PM 41.8203 -97.2258 271° West 423 487 38,000  Level FlightAware ADS-B
08:36PM 41.8215 -97.3071 271° West 424 488 38,000  Level FlightAware ADS-B
08:36PM 41.8225 -97.3867 271° West 424 488 38,000  Level FlightAware ADS-B
08:37PM 41.8236 -97.4685 271° West 424 488 38,000  Level FlightAware ADS-B
08:37PM 41.8246 -97.5478 271° West 425 489 38,000  Level FlightAware ADS-B
08:38PM 41.8256 -97.6316 271° West 425 489 38,000  Level FlightAware ADS-B
08:38PM 41.8264 -97.7111 271° West 427 491 38,000  Level FlightAware ADS-B
08:39PM 41.8271 -97.7913 271° West 427 491 38,000  Level FlightAware ADS-B
08:39PM 41.8279 -97.8773 271° West 427 491 38,000  Level FlightAware ADS-B
08:40PM 41.8286 -97.9578 271° West 427 491 38,000  Level FlightAware ADS-B
08:40PM 41.8293 -98.0378 271° West 427 491 38,000  Level FlightAware ADS-B
08:41PM 41.8298 -98.1196 270° West 427 491 38,000  Level FlightAware ADS-B
08:41PM 41.8304 -98.2078 271° West 426 490 38,000  Level FlightAware ADS-B
08:42PM 41.8309 -98.2894 270° West 425 489 38,000  Level FlightAware ADS-B
08:42PM 41.8313 -98.3687 270° West 425 489 38,000  Level FlightAware ADS-B
08:44PM 41.8321 -98.6266 270° West 422 486 38,000  Level FlightAware ADS-B
08:45PM 41.8323 -98.7072 270° West 422 486 38,000  Level FlightAware ADS-B
08:45PM 41.8324 -98.7857 270° West 422 486 38,000  Level FlightAware ADS-B
08:46PM 41.8325 -98.8657 270° West 421 484 38,000  Level FlightAware ADS-B
08:47PM 41.8324 -99.0447 270° West 421 484 38,000  Level FlightAware ADS-B
08:47PM 41.8321 -99.1645 270° West 423 487 38,000  Level FlightAware ADS-B
08:48PM 41.8320 -99.2429 270° West 423 487 38,000  Level FlightAware ADS-B
08:48PM 41.8317 -99.3220 270° West 424 488 38,000  Level FlightAware ADS-B
08:49PM 41.8314 -99.4038 270° West 425 489 38,000  Level FlightAware ADS-B
08:50PM 41.8310 -99.4868 270° West 425 489 38,000  Level FlightAware ADS-B
08:50PM 41.8308 -99.5686 270° West 425 489 38,000  Level Denver Center
08:51PM 41.8303 -99.7314 270° West 426 490 38,000  Level Denver Center
08:52PM 41.8286 -99.8817 269° West 424 488 38,000  Level Denver Center
08:53PM 41.8264 -100.0581 269° West 426 490 38,000  Level Denver Center
08:59PM 41.8126 -101.0380 269° West 418 481 38,000  Level FlightAware ADS-B
09:00PM 41.8106 -101.1420 269° West 419 482 38,000  Level FlightAware ADS-B
09:01PM 41.8090 -101.2290 269° West 420 483 38,000  Level FlightAware
09:01PM 41.8076 -101.2850 268° West 421 484 38,000  Level FlightAware ADS-B
09:02PM 41.8060 -101.3640 268° West 422 486 38,000  Level FlightAware ADS-B
09:02PM 41.8043 -101.4430 268° West 423 487 38,000  Level FlightAware ADS-B
09:03PM 41.7984 -101.5430 266° West 424 488 38,000  Level FlightAware ADS-B
09:03PM 41.7859 -101.6210 258° West 428 493 38,000  Level FlightAware ADS-B
09:04PM 41.7737 -101.6990 258° West 429 494 38,000  Level FlightAware ADS-B
09:04PM 41.7552 -101.8190 258° West 431 496 38,000  Level FlightAware ADS-B
09:05PM 41.7429 -101.8990 258° West 431 496 38,000  Level FlightAware ADS-B
09:06PM 41.7227 -102.0300 258° West 432 497 38,000  Level FlightAware ADS-B
09:06PM 41.7197 -102.0430 253° West 434 499 38,000  Level FlightAware ADS-B
09:06PM 41.6976 -102.1190 249° West 434 499 38,000  Level FlightAware ADS-B
09:07PM 41.6751 -102.1930 248° West 431 496 38,000  Level FlightAware ADS-B
09:07PM 41.6513 -102.2720 248° West 429 494 38,000  Level FlightAware ADS-B
09:08PM 41.6290 -102.3470 248° West 429 494 38,000  Level FlightAware ADS-B
09:08PM 41.6064 -102.4230 248° West 429 494 38,000  Level FlightAware ADS-B
09:09PM 41.5769 -102.5210 248° West 430 495 38,000  Level FlightAware ADS-B
09:09PM 41.5632 -102.5680 249° West 428 493 38,000  Level FlightAware ADS-B
09:10PM 41.5556 -102.6050 255° West 426 490 38,000  Level FlightAware ADS-B
09:10PM 41.5510 -102.6510 262° West 423 487 38,000  Level FlightAware ADS-B
09:11PM 41.5497 -102.7320 269° West 421 484 38,000  Level FlightAware ADS-B
09:11PM 41.5484 -102.8110 269° West 422 486 38,000  Level FlightAware ADS-B
09:12PM 41.5467 -102.8950 268° West 421 484 38,000  Level FlightAware ADS-B
09:12PM 41.5451 -102.9730 268° West 421 484 38,000  Level FlightAware ADS-B
09:13PM 41.5434 -103.0510 268° West 421 484 38,000  Level FlightAware ADS-B
09:13PM 41.5412 -103.1460 268° West 419 482 38,000  Level FlightAware ADS-B
09:14PM 41.5393 -103.2240 268° West 417 480 38,000  Level FlightAware ADS-B
09:14PM 41.5374 -103.3020 268° West 416 479 38,000  Level FlightAware ADS-B
09:15PM 41.5355 -103.3790 268° West 414 476 38,000  Level FlightAware ADS-B
09:15PM 41.5336 -103.4560 268° West 412 474 38,000  Level FlightAware ADS-B
09:16PM 41.5312 -103.5530 268° West 412 474 38,000  Level FlightAware ADS-B
09:16PM 41.5291 -103.6300 268° West 412 474 38,000  Level FlightAware ADS-B
09:17PM 41.5269 -103.7070 268° West 413 475 38,000  Level FlightAware ADS-B
09:17PM 41.5246 -103.7850 268° West 414 476 38,000  Level FlightAware ADS-B
09:18PM 41.5223 -103.8620 268° West 416 479 38,000  Level FlightAware ADS-B
09:18PM 41.5201 -103.9400 268° West 417 480 38,000  Level FlightAware ADS-B
09:19PM 41.5178 -104.0180 268° West 416 479 38,000  Level FlightAware ADS-B
09:19PM 41.5155 -104.0940 268° West 414 476 38,000  Level FlightAware ADS-B
09:20PM 41.5129 -104.1710 267° West 414 476 38,000  Level FlightAware ADS-B
09:20PM 41.5104 -104.2480 268° West 414 476 38,000  Level FlightAware ADS-B
09:21PM 41.5077 -104.3250 267° West 414 476 38,000  Level FlightAware ADS-B
09:22PM 41.5046 -104.4150 267° West 414 476 38,000  Level FlightAware ADS-B
09:22PM 41.5019 -104.4930 267° West 414 476 38,000  Level FlightAware ADS-B
09:23PM 41.4993 -104.5700 267° West 414 476 38,000  Level FlightAware ADS-B
09:23PM 41.4964 -104.6460 267° West 416 479 38,000  Level FlightAware ADS-B
09:24PM 41.4935 -104.7240 267° West 418 481 38,000  Level FlightAware ADS-B
09:24PM 41.4905 -104.8050 267° West 418 481 38,000  Level FlightAware ADS-B
09:25PM 41.4874 -104.8840 267° West 421 484 38,000  Level FlightAware ADS-B
09:25PM 41.4843 -104.9640 267° West 424 488 38,000  Level FlightAware ADS-B
09:26PM 41.4812 -105.0430 267° West 423 487 38,000  Level FlightAware ADS-B
09:26PM 41.4777 -105.1270 267° West 422 486 38,000  Level FlightAware ADS-B
09:27PM 41.4743 -105.2130 267° West 417 480 38,000  Level FlightAware ADS-B
09:27PM 41.4707 -105.2990 267° West 414 476 38,000  Level FlightAware ADS-B
09:28PM 41.4650 -105.4280 267° West 414 476 38,000  Level FlightAware
09:29PM 41.4610 -105.5260 267° West 417 480 38,000  Level FlightAware
09:29PM 41.4560 -105.6400 267° West 419 482 38,000  Level FlightAware
09:30PM 41.4510 -105.7440 266° West 419 482 38,000  Level FlightAware
09:31PM 41.4460 -105.8550 267° West 416 479 38,000  Level FlightAware
09:32PM 41.4400 -105.9650 266° West 415 478 38,000  Level FlightAware
09:32PM 41.4360 -106.0640 267° West 414 476 38,000  Level FlightAware
09:33PM 41.4310 -106.1560 266° West 415 478 38,000  Level FlightAware
09:34PM 41.4260 -106.2620 266° West 416 479 38,000  Level FlightAware
09:34PM 41.4200 -106.3670 266° West 415 478 38,000  Level FlightAware
09:35PM 41.4150 -106.4600 266° West 414 476 38,000  Level FlightAware
09:35PM 41.4100 -106.5600 266° West 414 476 38,000  Level FlightAware
09:36PM 41.4040 -106.6720 266° West 412 474 38,000  Level FlightAware
09:37PM 41.3990 -106.7620 266° West 412 474 38,000  Level FlightAware
09:37PM 41.3940 -106.8620 266° West 410 472 38,000  Level FlightAware
09:38PM 41.3870 -106.9740 265° West 408 470 38,000  Level FlightAware
09:39PM 41.3820 -107.0740 266° West 405 466 38,000  Level FlightAware
09:40PM 41.3750 -107.1860 265° West 405 466 38,000  Level FlightAware
09:40PM 41.3690 -107.2870 266° West 409 471 38,000  Level FlightAware
09:41PM 41.3630 -107.3930 266° West 410 472 38,000  Level FlightAware
09:42PM 41.3570 -107.4860 265° West 410 472 38,000  Level FlightAware
09:42PM 41.3510 -107.5820 265° West 411 473 38,000  Level FlightAware
09:43PM 41.3440 -107.6950 265° West 413 475 38,000  Level FlightAware
09:44PM 41.3380 -107.7860 265° West 413 475 38,000  Level FlightAware
09:44PM 41.3320 -107.8860 265° West 413 475 38,000  Level FlightAware
09:45PM 41.3250 -107.9910 265° West 413 475 38,000  Level FlightAware
09:46PM 41.3180 -108.0930 265° West 413 475 38,000  Level FlightAware
09:46PM 41.3120 -108.1830 265° West 413 475 38,000  Level FlightAware
09:47PM 41.3050 -108.2910 265° West 414 476 38,000  Level FlightAware
09:48PM 41.2980 -108.3930 265° West 415 478 38,000  Level FlightAware
09:48PM 41.2900 -108.5030 265° West 415 478 38,000  Level FlightAware
09:49PM 41.2820 -108.6150 265° West 415 478 38,000  Level FlightAware
09:50PM 41.2740 -108.7200 264° West 414 476 38,000  Level FlightAware
09:50PM 41.2670 -108.8280 265° West 414 476 38,000  Level FlightAware
09:51PM 41.2600 -108.9190 264° West 414 476 38,000  Level FlightAware
09:52PM 41.2520 -109.0190 264° West 411 473 38,000  Level FlightAware
09:52PM 41.2440 -109.1280 264° West 409 471 38,000  Level FlightAware
09:53PM 41.2380 -109.2100 264° West 411 473 38,000  Level FlightAware
09:54PM 41.2290 -109.3210 264° West 411 473 38,000  Level FlightAware
09:54PM 41.2210 -109.4220 264° West 415 478 38,000  Level FlightAware
09:55PM 41.2120 -109.5350 264° West 418 481 38,000  Level FlightAware
09:56PM 41.2040 -109.6360 264° West 416 479 38,000  Level FlightAware
09:57PM 41.1950 -109.7470 264° West 416 479 38,000  Level FlightAware
09:57PM 41.1870 -109.8480 264° West 412 474 38,000  Level FlightAware
09:58PM 41.1800 -109.9370 264° West 408 470 38,000  Level FlightAware
09:59PM 41.1710 -110.0380 263° West 406 467 38,000  Level FlightAware
09:59PM 41.1620 -110.1450 264° West 402 463 38,000  Level FlightAware
10:00PM 41.1550 -110.2250 263° West 400 460 38,000  Level FlightAware
10:01PM 41.1460 -110.3370 264° West 401 461 38,000  Level FlightAware
10:01PM 41.1390 -110.4170 263° West 402 463 38,000  Level FlightAware
10:02PM 41.1281 -110.5380 263° West 405 466 38,000  Level FlightAware ADS-B
10:02PM 41.1214 -110.6140 263° West 407 468 38,000  Level FlightAware ADS-B
10:03PM 41.1148 -110.6880 263° West 407 468 38,000  Level FlightAware ADS-B
10:03PM 41.1079 -110.7660 263° West 406 467 38,000  Level FlightAware ADS-B
10:04PM 41.1011 -110.8410 263° West 405 466 38,000  Level FlightAware ADS-B
10:04PM 41.0944 -110.9130 263° West 407 468 38,000  Level FlightAware ADS-B
10:05PM 41.0865 -110.9980 263° West 408 470 38,000  Level FlightAware ADS-B
10:06PM 41.0796 -111.0730 263° West 408 470 38,000  Level FlightAware ADS-B
10:06PM 41.0725 -111.1480 263° West 407 468 38,000  Level FlightAware ADS-B
10:07PM 41.0655 -111.2220 263° West 405 466 38,000  Level FlightAware ADS-B
10:07PM 41.0577 -111.3050 263° West 407 468 38,000  Level FlightAware ADS-B
10:08PM 41.0506 -111.3790 263° West 408 470 38,000  Level FlightAware ADS-B
10:08PM 41.0433 -111.4550 263° West 408 470 38,000  Level FlightAware ADS-B
10:09PM 41.0360 -111.5310 263° West 407 468 38,000  Level FlightAware ADS-B
10:09PM 41.0283 -111.6100 263° West 405 466 38,000  Level FlightAware ADS-B
10:10PM 41.0211 -111.6830 263° West 403 464 38,000  Level FlightAware ADS-B
10:10PM 41.0136 -111.7580 262° West 402 463 38,000  Level FlightAware ADS-B
10:11PM 41.0062 -111.8310 262° West 399 459 38,000  Level FlightAware ADS-B
10:11PM 40.9987 -111.9060 262° West 397 457 38,000  Level FlightAware ADS-B
10:12PM 40.9914 -111.9790 262° West 398 458 38,000  Level FlightAware ADS-B
10:12PM 40.9840 -112.0520 262° West 399 459 38,000  Level FlightAware ADS-B
10:13PM 40.9764 -112.1260 262° West 399 459 38,000  Level FlightAware ADS-B
10:13PM 40.9689 -112.2000 262° West 400 460 38,000  Level FlightAware ADS-B
10:14PM 40.9612 -112.2740 262° West 401 461 38,000  Level FlightAware ADS-B
10:14PM 40.9532 -112.3500 262° West 402 463 38,000  Level FlightAware ADS-B
10:15PM 40.9455 -112.4240 262° West 402 463 38,000  Level FlightAware ADS-B
10:15PM 40.9367 -112.5070 262° West 402 463 38,000  Level FlightAware ADS-B
10:16PM 40.9289 -112.5810 262° West 404 465 38,000  Level FlightAware ADS-B
10:16PM 40.9206 -112.6570 262° West 405 466 38,000  Level FlightAware ADS-B
10:17PM 40.9126 -112.7320 262° West 406 467 38,000  Level FlightAware ADS-B
10:17PM 40.9045 -112.8070 262° West 406 467 38,000  Level FlightAware ADS-B
10:18PM 40.8964 -112.8810 262° West 407 468 38,000  Level FlightAware ADS-B
10:18PM 40.8881 -112.9560 262° West 406 467 38,000  Level FlightAware ADS-B
10:19PM 40.8798 -113.0320 262° West 405 466 38,000  Level FlightAware ADS-B
10:20PM 40.8677 -113.1410 262° West 404 465 38,000  Level FlightAware ADS-B
10:20PM 40.8594 -113.2150 262° West 403 464 38,000  Level FlightAware ADS-B
10:21PM 40.8510 -113.2880 261° West 402 463 38,000  Level FlightAware ADS-B
10:21PM 40.8423 -113.3650 262° West 400 460 38,000  Level FlightAware ADS-B
10:22PM 40.8339 -113.4400 262° West 400 460 38,000  Level FlightAware ADS-B
10:22PM 40.8255 -113.5130 261° West 401 461 38,000  Level FlightAware ADS-B
10:23PM 40.8149 -113.6040 261° West 401 461 38,000  Level FlightAware ADS-B
10:23PM 40.8063 -113.6780 261° West 401 461 38,000  Level FlightAware ADS-B
10:24PM 40.7977 -113.7510 261° West 400 460 38,000  Level FlightAware ADS-B
10:24PM 40.7892 -113.8240 261° West 399 459 38,000  Level FlightAware ADS-B
10:25PM 40.7806 -113.8970 261° West 399 459 38,000  Level FlightAware ADS-B
10:25PM 40.7717 -113.9710 261° West 399 459 38,000  Level FlightAware ADS-B
10:26PM 40.7631 -114.0440 261° West 400 460 38,000  Level FlightAware ADS-B
10:26PM 40.7544 -114.1160 261° West 398 458 38,000  Level FlightAware ADS-B
10:27PM 40.7455 -114.1900 261° West 396 456 38,000  Level FlightAware ADS-B
10:27PM 40.7368 -114.2610 261° West 395 455 38,000  Level FlightAware ADS-B
10:28PM 40.7274 -114.3390 261° West 394 453 38,000  Level FlightAware ADS-B
10:29PM 40.7176 -114.4170 261° West 393 452 38,000  Level FlightAware ADS-B
10:29PM 40.7089 -114.4880 261° West 394 453 38,000  Level FlightAware ADS-B
10:30PM 40.6997 -114.5620 261° West 397 457 38,000  Level FlightAware ADS-B
10:30PM 40.6904 -114.6360 261° West 400 460 38,000  Level FlightAware ADS-B
10:31PM 40.6812 -114.7100 261° West 400 460 38,000  Level FlightAware ADS-B
10:31PM 40.6715 -114.7870 261° West 399 459 38,000  Level FlightAware ADS-B
10:33PM 40.6440 -115.0020 260° West 397 457 38,000  Level FlightAware ADS-B
10:33PM 40.6344 -115.0770 260° West 397 457 38,000  Level FlightAware ADS-B
10:34PM 40.6250 -115.1490 260° West 398 458 38,000  Level FlightAware ADS-B
10:34PM 40.6156 -115.2210 260° West 398 458 38,000  Level FlightAware ADS-B
10:35PM 40.6061 -115.2940 260° West 398 458 38,000  Level FlightAware ADS-B
10:35PM 40.5968 -115.3650 260° West 397 457 38,000  Level FlightAware ADS-B
10:36PM 40.5872 -115.4370 260° West 395 455 38,000  Level FlightAware ADS-B
10:39PM 40.5238 -115.9060 260° West 401 461 38,000  Level FlightAware ADS-B
10:39PM 40.5139 -115.9790 260° West 403 464 38,000  Level FlightAware ADS-B
10:40PM 40.5039 -116.0520 260° West 403 464 38,000  Level FlightAware ADS-B
10:40PM 40.4938 -116.1260 260° West 402 463 38,000  Level FlightAware ADS-B
10:41PM 40.4837 -116.1990 260° West 401 461 38,000  Level FlightAware ADS-B
10:42PM 40.4735 -116.2710 259° West 398 458 38,000  Level FlightAware ADS-B
10:43PM 40.4519 -116.4253 259° West 398 458 38,000  Level Oakland Center
10:44PM 40.4317 -116.5617 259° West 396 456 38,000  Level Salt Lake Center
10:45PM 40.4125 -116.6975 260° West 395 455 38,000  Level Salt Lake Center
10:46PM 40.3925 -116.8300 259° West 400 460 38,000  Level Salt Lake Center
10:47PM 40.3675 -117.0003 259° West 400 460 38,000  Level Salt Lake Center
10:48PM 40.3475 -117.1453 260° West 401 461 38,000  Level Salt Lake Center
10:49PM 40.3267 -117.2797 259° West 396 456 38,000  Level Salt Lake Center
10:50PM 40.3025 -117.4389 259° West 398 458 38,000  Level Salt Lake Center
10:51PM 40.2828 -117.5750 259° West 398 458 38,000  Level Salt Lake Center
10:52PM 40.2611 -117.7111 258° West 398 458 38,000 -1,200 Level Salt Lake Center
10:58PM 40.1120 -118.5860 258° West 398 458 29,700 -1,440 Descending FlightAware
10:58PM 40.0620 -118.6550 227° Southwest 386 444 28,600 -1,860 Descending FlightAware
10:59PM 40.0070 -118.7240 224° Southwest 375 432 27,100 -2,220 Descending FlightAware
11:00PM 39.9520 -118.7910 223° Southwest 365 420 25,400 -2,220 Descending FlightAware
11:01PM 39.9040 -118.8490 223° Southwest 356 410 24,000 -2,160 Descending FlightAware
11:01PM 39.8510 -118.9140 223° Southwest 348 400 22,400 -2,160 Descending FlightAware
11:02PM 39.8040 -118.9710 223° Southwest 352 405 21,000 -2,160 Descending FlightAware
11:03PM 39.7580 -119.0270 223° Southwest 360 414 19,600 -2,280 Descending FlightAware
11:03PM 39.7090 -119.0860 223° Southwest 368 423 18,100 -2,340 Descending FlightAware
11:04PM 39.6530 -119.1550 224° Southwest 374 430 16,400 -1,800 Descending FlightAware
11:05PM 39.6100 -119.2120 226° Southwest 362 417 15,700 -1,440 Descending FlightAware
11:05PM 39.5640 -119.2730 226° Southwest 350 403 14,600 -1,800 Descending FlightAware
11:06PM 39.5190 -119.3330 226° Southwest 341 392 13,300 -2,100 Descending FlightAware
11:07PM 39.4750 -119.3900 225° Southwest 333 383 11,800 -1,620 Descending FlightAware
11:07PM 39.4360 -119.4390 224° Southwest 309 356 11,300 -600 Descending FlightAware
11:08PM 39.3930 -119.4920 224° Southwest 289 333 11,000 -240 Descending FlightAware
11:09PM 39.3520 -119.5320 217° Southwest 291 335 11,000  Level FlightAware
11:09PM 39.3010 -119.5780 215° Southwest 299 344 11,000  Level FlightAware
11:10PM 39.2550 -119.6190 215° Southwest 297 342 11,000 -300 Level FlightAware
11:10PM 39.2300 -119.6410 214° Southwest 294 338 10,700 -960 Descending FlightAware
11:11PM 39.1780 -119.6900 216° Southwest 275 316 9,900 -1,020 Descending FlightAware
11:11PM 39.1710 -119.7090 245° Southwest 270 311 9,700 -900 Descending FlightAware
11:12PM 39.1690 -119.7210 258° West 266 306 9,600 -960 Descending FlightAware
11:12PM 39.1800 -119.7550 293° West 266 306 9,200 -1,080 Descending FlightAware
11:12PM 39.2000 -119.7670 335° Northwest 259 298 8,900 -540 Descending FlightAware
11:13PM 39.2180 -119.7710 350° North 256 295 8,900 60 Level FlightAware
11:13PM 39.2620 -119.7700 North 219 252 9,000  Climbing FlightAware
11:13PM 39.2750 -119.7700 360° North 219 252 8,900 -1,020 Descending FlightAware
11:14PM 39.2980 -119.7700 360° North 214 246 8,400 -1,260 Descending FlightAware
11:14PM 39.3220 -119.7700 360° North 198 228 7,900 -1,020 Descending FlightAware
11:15PM 39.3410 -119.7700 360° North 180 207 7,600 -1,080 Descending FlightAware
11:15PM 39.3640 -119.7700 360° North 173 199 7,000 -1,140 Descending FlightAware
11:15PM 39.3800 -119.7700 360° North 176 203 6,700 -1,020 Descending FlightAware
11:16PM 39.4030 -119.7700 360° North 176 203 6,200 -1,140 Descending FlightAware
11:17PM 39.4330 -119.7700 360° North 167 192 5,500 -1,080 Descending FlightAware
11:17PM 39.4490 -119.7690 North 169 194 5,200 -960 Descending FlightAware
11:17PM 39.4680 -119.7690 360° North 160 184 4,800 -1,020 Descending FlightAware
11:18PM 39.4900 -119.7690 360° North 159 183 4,300 -1,020 Descending FlightAware
11:18PM 39.5040 -119.7690 360° North 68 78 -9,960 Descending FlightAware